createdAt,value
2022-12-15T00:02:11.318Z,-1.62
2022-12-15T00:07:36.570Z,-1.55
2022-12-15T00:13:02.007Z,-1.21
2022-12-15T00:18:27.611Z,-0.90
2022-12-15T00:23:52.811Z,-0.80
2022-12-15T00:29:18.239Z,-0.87
2022-12-15T00:34:43.756Z,-0.61
2022-12-15T00:40:01.638Z,-0.44
2022-12-15T00:45:09.158Z,-0.35
2022-12-15T00:50:34.462Z,-0.26
2022-12-15T00:55:59.586Z,-0.33
2022-12-15T01:01:49.790Z,-0.45
2022-12-15T01:07:15.342Z,-0.27
2022-12-15T01:12:40.260Z,-0.22
2022-12-15T01:18:05.796Z,-0.37
2022-12-15T01:23:11.319Z,-0.24
2022-12-15T01:28:16.775Z,-0.20
2022-12-15T01:33:22.341Z,-0.42
2022-12-15T01:38:28.616Z,-0.47
2022-12-15T01:43:37.226Z,-0.47
2022-12-15T01:48:47.777Z,-0.20
2022-12-15T01:54:08.707Z,-0.07
2022-12-15T01:59:21.901Z,0.02
2022-12-15T02:04:27.249Z,0.07
2022-12-15T02:09:32.967Z,0.10
2022-12-15T02:14:45.751Z,0.09
2022-12-15T02:20:47.198Z,-0.34
2022-12-15T02:26:29.850Z,-0.69
2022-12-15T02:32:38.079Z,-0.62
2022-12-15T02:37:45.423Z,-0.87
2022-12-15T02:43:00.950Z,-0.52
2022-12-15T02:48:35.792Z,-0.22
2022-12-15T02:53:41.381Z,-0.28
2022-12-15T02:59:24.375Z,-0.46
2022-12-15T03:04:36.586Z,-0.50
2022-12-15T03:09:42.924Z,-0.43
2022-12-15T03:14:48.390Z,-0.53
2022-12-15T03:19:53.957Z,-0.68
2022-12-15T03:24:59.390Z,-0.65
2022-12-15T03:30:06.481Z,-0.88
2022-12-15T03:35:13.609Z,-0.63
2022-12-15T03:40:19.001Z,-0.77
2022-12-15T03:45:27.492Z,-0.86
2022-12-15T03:50:32.995Z,-0.86
2022-12-15T03:55:38.569Z,-0.80
2022-12-15T04:00:43.897Z,-0.91
2022-12-15T04:05:49.484Z,-1.01
2022-12-15T04:10:55.061Z,-0.99
2022-12-15T04:16:03.420Z,-1.09
2022-12-15T04:21:09.000Z,-0.77
2022-12-15T04:26:34.114Z,-1.09
2022-12-15T04:31:58.991Z,-1.20
2022-12-15T04:37:24.258Z,-1.36
2022-12-15T04:42:49.414Z,-1.19
2022-12-15T04:48:13.903Z,-1.15
2022-12-15T04:53:38.141Z,-1.11
2022-12-15T04:59:00.934Z,-0.86
2022-12-15T05:04:24.026Z,-1.10
2022-12-15T05:09:50.823Z,-1.15
2022-12-15T05:15:13.320Z,-1.24
2022-12-15T05:20:35.787Z,-1.17
2022-12-15T05:25:58.725Z,-1.02
2022-12-15T05:31:21.693Z,-0.79
2022-12-15T05:36:26.121Z,-0.84
2022-12-15T05:41:30.518Z,-0.78
2022-12-15T05:46:34.726Z,-0.76
2022-12-15T05:51:41.044Z,-0.63
2022-12-15T05:56:46.027Z,-1.04
2022-12-15T06:01:50.250Z,-0.38
2022-12-15T06:06:54.395Z,0.01
2022-12-15T06:11:58.569Z,-0.37
2022-12-15T06:17:03.009Z,-0.16
2022-12-15T06:22:07.433Z,0.18
2022-12-15T06:27:11.575Z,0.16
2022-12-15T06:32:15.803Z,0.00
2022-12-15T06:37:19.985Z,-0.05
2022-12-15T06:42:24.385Z,0.26
2022-12-15T06:47:28.535Z,0.84
2022-12-15T06:52:35.600Z,0.98
2022-12-15T06:57:39.768Z,0.87
2022-12-15T07:02:44.336Z,1.20
2022-12-15T07:07:56.149Z,1.55
2022-12-15T07:13:00.379Z,1.90
2022-12-15T07:18:04.706Z,2.24
2022-12-15T07:23:10.285Z,2.21
2022-12-15T07:28:14.524Z,2.69
2022-12-15T07:33:18.709Z,2.97
2022-12-15T07:38:23.036Z,3.09
2022-12-15T07:43:31.980Z,3.04
2022-12-15T07:48:38.408Z,2.97
2022-12-15T07:53:47.669Z,2.91
2022-12-15T07:58:51.986Z,2.75
2022-12-15T08:03:56.299Z,2.65
2022-12-15T08:09:03.662Z,2.54
2022-12-15T08:14:11.947Z,2.63
2022-12-15T08:19:19.622Z,2.52
2022-12-15T08:24:23.766Z,2.51
2022-12-15T08:34:53.812Z,2.78
2022-12-15T08:39:57.990Z,2.80
2022-12-15T08:45:02.191Z,2.97
2022-12-15T08:50:10.789Z,2.89
2022-12-15T08:55:20.772Z,2.79
2022-12-15T09:00:26.480Z,2.73
2022-12-15T09:05:30.530Z,2.70
2022-12-15T09:10:34.849Z,2.53
2022-12-15T09:16:07.752Z,2.51
2022-12-15T09:21:09.522Z,2.62
2022-12-15T09:26:15.555Z,2.67
2022-12-15T09:31:26.383Z,2.86
2022-12-15T09:36:34.317Z,2.78
2022-12-15T09:41:41.498Z,2.79
2022-12-15T09:47:27.522Z,2.80
2022-12-15T09:52:43.188Z,2.79
2022-12-15T09:58:20.992Z,2.41
2022-12-15T10:03:31.268Z,2.47
2022-12-15T10:08:54.915Z,2.37
2022-12-15T10:14:03.559Z,2.16
2022-12-15T10:19:18.802Z,1.99
2022-12-15T10:25:07.409Z,1.96
2022-12-15T10:30:01.880Z,1.65
2022-12-15T10:35:40.316Z,1.83
2022-12-15T10:40:54.076Z,1.83
2022-12-15T10:46:19.078Z,1.87
2022-12-15T10:51:32.981Z,1.87
2022-12-15T10:57:00.949Z,1.84
2022-12-15T11:02:26.425Z,1.99
2022-12-15T11:07:45.492Z,2.12
2022-12-15T11:13:16.966Z,2.04
2022-12-15T11:18:37.385Z,1.65
2022-12-15T11:24:04.658Z,1.76
2022-12-15T11:29:24.045Z,1.74
2022-12-15T11:34:37.444Z,1.52
2022-12-15T11:39:47.598Z,1.45
2022-12-15T11:45:23.196Z,1.32
2022-12-15T11:50:32.165Z,1.11
2022-12-15T11:56:16.345Z,0.73
2022-12-15T12:02:02.934Z,0.62
2022-12-15T12:07:27.424Z,0.40
2022-12-15T12:12:50.590Z,0.30
2022-12-15T12:18:03.717Z,-0.11
2022-12-15T12:23:25.123Z,-0.20
2022-12-15T12:28:40.159Z,-0.57
2022-12-15T12:33:49.323Z,-0.47
2022-12-15T12:38:57.673Z,-0.48
2022-12-15T12:44:15.652Z,-0.43
2022-12-15T12:49:38.365Z,-0.34
2022-12-15T12:54:50.235Z,-0.59
2022-12-15T13:00:22.693Z,-1.05
2022-12-15T13:05:31.943Z,-1.75
2022-12-15T13:10:40.233Z,-2.60
2022-12-15T13:15:50.929Z,-3.03
2022-12-15T13:20:59.132Z,-3.31
2022-12-15T13:26:13.973Z,-3.48
2022-12-15T13:36:54.836Z,-4.15
2022-12-15T13:47:31.849Z,-4.63
2022-12-15T13:53:17.934Z,-4.97
2022-12-15T13:58:18.281Z,-5.21
2022-12-15T14:03:23.451Z,-5.39
2022-12-15T14:08:31.137Z,-6.01
2022-12-15T14:13:37.897Z,-6.23
2022-12-15T14:18:44.583Z,-6.28
2022-12-15T14:24:28.821Z,-6.24
2022-12-15T14:29:18.060Z,-6.31
2022-12-15T14:34:29.733Z,-6.39
2022-12-15T14:39:45.731Z,-6.74
2022-12-15T14:44:57.870Z,-6.70
2022-12-15T14:50:12.710Z,-6.57
2022-12-15T14:55:36.496Z,-6.56
2022-12-15T15:00:54.278Z,-6.67
2022-12-15T15:03:13.112Z,-3.83
2022-12-15T15:06:07.929Z,-6.70
2022-12-15T15:11:30.842Z,-6.70
2022-12-15T15:16:36.190Z,-7.14
2022-12-15T15:21:41.526Z,-7.42
2022-12-15T15:26:47.080Z,-7.45
2022-12-15T15:31:54.579Z,-7.49
2022-12-15T15:37:02.688Z,-7.55
2022-12-15T15:42:14.749Z,-7.92
2022-12-15T15:47:26.621Z,-7.91
2022-12-15T15:52:32.638Z,-8.02
2022-12-15T15:57:38.015Z,-8.11
2022-12-15T16:02:43.804Z,-8.43
2022-12-15T16:07:50.855Z,-8.60
2022-12-15T16:13:01.070Z,-8.74
2022-12-15T16:18:06.591Z,-8.70
2022-12-15T16:23:38.104Z,-8.62
2022-12-15T16:28:44.239Z,-8.42
2022-12-15T16:33:49.750Z,-8.23
2022-12-15T16:38:55.370Z,-8.08
2022-12-15T16:44:00.722Z,-7.91
2022-12-15T16:49:06.332Z,-7.86
2022-12-15T16:54:26.433Z,-7.84
2022-12-15T16:59:33.876Z,-7.45
2022-12-15T17:04:39.951Z,-7.43
2022-12-15T17:09:45.513Z,-7.41
2022-12-15T17:14:51.144Z,-7.30
2022-12-15T17:25:53.339Z,-6.13
2022-12-15T17:30:53.903Z,-5.66
2022-12-15T17:36:05.243Z,-5.84
2022-12-15T17:41:34.964Z,-6.38
2022-12-15T17:46:42.272Z,-6.11
2022-12-15T17:51:48.924Z,-6.48
2022-12-15T17:56:54.277Z,-6.49
2022-12-15T18:01:59.750Z,-6.52
2022-12-15T18:07:05.635Z,-6.09
2022-12-15T18:12:23.173Z,-5.92
2022-12-15T18:17:28.981Z,-5.59
2022-12-15T18:22:34.739Z,-5.27
2022-12-15T18:27:40.988Z,-4.83
2022-12-15T18:32:47.442Z,-4.35
2022-12-15T18:37:53.331Z,-4.00
2022-12-15T18:42:58.749Z,-3.91
2022-12-15T18:48:09.446Z,-4.01
2022-12-15T18:53:22.915Z,-4.11
2022-12-15T18:58:40.094Z,-4.24
2022-12-15T19:03:45.577Z,-4.42
2022-12-15T19:08:51.869Z,-4.59
2022-12-15T19:13:57.934Z,-4.70
2022-12-15T19:19:23.053Z,-4.62
2022-12-15T19:24:50.312Z,-4.60
2022-12-15T19:29:56.241Z,-4.62
2022-12-15T19:35:01.837Z,-4.73
2022-12-15T19:40:09.158Z,-4.83
2022-12-15T19:45:27.627Z,-4.81
2022-12-15T19:50:37.444Z,-5.04
2022-12-15T19:55:43.343Z,-5.18
2022-12-15T20:00:49.701Z,-5.33
2022-12-15T20:05:56.970Z,-5.12
2022-12-15T20:11:02.612Z,-4.89
2022-12-15T20:16:08.452Z,-4.92
2022-12-15T20:21:17.916Z,-4.80
2022-12-15T20:26:31.124Z,-5.12
2022-12-15T20:31:36.610Z,-5.10
2022-12-15T20:36:43.106Z,-4.82
2022-12-15T20:41:48.810Z,-4.58
2022-12-15T20:46:54.585Z,-4.58
2022-12-15T20:51:59.906Z,-4.78
2022-12-15T20:57:05.412Z,-5.30
2022-12-15T21:02:23.344Z,-5.47
2022-12-15T21:07:28.858Z,-5.56
2022-12-15T21:12:34.549Z,-5.74
2022-12-15T21:17:42.038Z,-5.80
2022-12-15T21:22:47.776Z,-5.86
2022-12-15T21:27:53.746Z,-5.77
2022-12-15T21:32:59.052Z,-5.79
2022-12-15T21:38:05.431Z,-5.48
2022-12-15T21:43:12.302Z,-5.42
2022-12-15T21:48:37.384Z,-5.62
2022-12-15T21:53:44.056Z,-5.54
2022-12-15T21:58:54.952Z,-5.69
2022-12-15T22:04:07.745Z,-5.72
2022-12-15T22:09:13.668Z,-5.68
2022-12-15T22:14:35.627Z,-5.58
2022-12-15T22:19:41.131Z,-5.64
2022-12-15T22:24:46.792Z,-6.44
2022-12-15T22:29:52.771Z,-6.52
2022-12-15T22:34:58.241Z,-6.43
2022-12-15T22:40:03.642Z,-6.51
2022-12-15T22:45:17.383Z,-6.80
2022-12-15T22:50:27.586Z,-6.83
2022-12-15T22:55:33.012Z,-6.52
2022-12-15T23:00:38.573Z,-6.53
2022-12-15T23:05:44.097Z,-6.92
2022-12-15T23:11:09.381Z,-7.10
2022-12-15T23:16:22.778Z,-7.52
2022-12-15T23:21:28.946Z,-7.34
2022-12-15T23:26:34.556Z,-6.77
2022-12-15T23:31:40.214Z,-6.47
2022-12-15T23:36:45.761Z,-6.07
2022-12-15T23:41:51.273Z,-6.06
2022-12-15T23:46:58.494Z,-5.48
2022-12-15T23:52:04.204Z,-4.95
2022-12-15T23:57:09.641Z,-4.83
